createdAt,value
2022-09-12T00:01:42.655Z,100.00
2022-09-12T00:04:12.785Z,100.00
2022-09-12T00:06:41.828Z,100.00
2022-09-12T00:09:14.347Z,100.00
2022-09-12T00:11:46.399Z,100.00
2022-09-12T00:14:19.287Z,100.00
2022-09-12T00:16:48.409Z,100.00
2022-09-12T00:19:18.680Z,100.00
2022-09-12T00:21:47.680Z,100.00
2022-09-12T00:24:16.597Z,100.00
2022-09-12T00:26:47.098Z,100.00
2022-09-12T00:29:18.348Z,100.00
2022-09-12T00:31:48.415Z,100.00
2022-09-12T00:34:17.375Z,100.00
2022-09-12T00:36:46.378Z,100.00
2022-09-12T00:39:18.059Z,100.00
2022-09-12T00:41:48.498Z,100.00
2022-09-12T00:44:50.389Z,100.00
2022-09-12T00:47:26.038Z,100.00
2022-09-12T00:50:00.917Z,100.00
2022-09-12T00:52:35.411Z,100.00
2022-09-12T00:55:08.907Z,100.00
2022-09-12T00:57:44.339Z,100.00
2022-09-12T01:00:16.399Z,100.00
2022-09-12T01:02:47.621Z,100.00
2022-09-12T01:05:17.529Z,100.00
2022-09-12T01:07:48.887Z,100.00
2022-09-12T01:10:19.587Z,100.00
2022-09-12T01:12:50.440Z,100.00
2022-09-12T01:15:19.665Z,100.00
2022-09-12T01:18:07.644Z,100.00
2022-09-12T01:21:00.140Z,100.00
2022-09-12T01:24:17.203Z,100.00
2022-09-12T01:27:20.249Z,100.00
2022-09-12T01:30:26.467Z,100.00
2022-09-12T01:33:17.402Z,100.00
2022-09-12T01:35:54.218Z,100.00
2022-09-12T01:38:31.415Z,100.00
2022-09-12T01:41:10.333Z,100.00
2022-09-12T01:43:48.201Z,100.00
2022-09-12T01:46:20.156Z,100.00
2022-09-12T01:48:57.149Z,100.00
2022-09-12T01:51:33.223Z,100.00
2022-09-12T01:54:07.871Z,100.00
2022-09-12T01:56:41.337Z,100.00
2022-09-12T01:59:17.821Z,100.00
2022-09-12T02:01:52.883Z,100.00
2022-09-12T02:04:28.376Z,100.00
2022-09-12T02:07:07.719Z,100.00
2022-09-12T02:09:40.326Z,100.00
2022-09-12T02:12:13.160Z,100.00
2022-09-12T02:14:47.305Z,100.00
2022-09-12T02:17:20.619Z,100.00
2022-09-12T02:19:56.686Z,100.00
2022-09-12T02:22:28.602Z,100.00
2022-09-12T02:25:00.825Z,100.00
2022-09-12T02:27:34.622Z,100.00
2022-09-12T02:30:03.701Z,100.00
2022-09-12T02:32:38.237Z,100.00
2022-09-12T02:35:15.890Z,100.00
2022-09-12T02:37:57.064Z,100.00
2022-09-12T02:40:26.855Z,100.00
2022-09-12T02:42:56.431Z,100.00
2022-09-12T02:45:25.573Z,100.00
2022-09-12T02:47:59.676Z,100.00
2022-09-12T02:50:30.976Z,100.00
2022-09-12T02:53:04.576Z,100.00
2022-09-12T02:55:35.171Z,100.00
2022-09-12T02:58:07.494Z,100.00
2022-09-12T03:00:42.708Z,100.00
2022-09-12T03:03:26.638Z,100.00
2022-09-12T03:06:00.401Z,100.00
2022-09-12T03:09:01.566Z,100.00
2022-09-12T03:11:50.125Z,100.00
2022-09-12T03:14:36.703Z,100.00
2022-09-12T03:17:15.546Z,100.00
2022-09-12T03:19:58.216Z,100.00
2022-09-12T03:22:33.230Z,100.00
2022-09-12T03:25:11.627Z,100.00
2022-09-12T03:27:45.700Z,100.00
2022-09-12T03:30:14.694Z,100.00
2022-09-12T03:32:46.038Z,100.00
2022-09-12T03:35:19.781Z,100.00
2022-09-12T03:37:54.087Z,100.00
2022-09-12T03:40:23.466Z,100.00
2022-09-12T03:42:52.440Z,100.00
2022-09-12T03:45:21.410Z,100.00
2022-09-12T03:47:50.425Z,100.00
2022-09-12T03:50:19.431Z,100.00
2022-09-12T03:52:48.413Z,100.00
2022-09-12T03:55:18.898Z,100.00
2022-09-12T03:57:47.992Z,100.00
2022-09-12T04:00:19.835Z,100.00
2022-09-12T04:02:49.173Z,100.00
2022-09-12T04:05:18.245Z,100.00
2022-09-12T04:07:47.207Z,100.00
2022-09-12T04:10:16.521Z,100.00
2022-09-12T04:12:46.892Z,100.00
2022-09-12T04:15:16.456Z,100.00
2022-09-12T04:17:45.393Z,100.00
2022-09-12T04:20:14.649Z,100.00
2022-09-12T04:22:43.629Z,100.00
2022-09-12T04:25:13.284Z,100.00
2022-09-12T04:27:42.414Z,100.00
2022-09-12T04:30:13.918Z,100.00
2022-09-12T04:32:42.967Z,100.00
2022-09-12T04:35:13.964Z,100.00
2022-09-12T04:37:42.961Z,100.00
2022-09-12T04:40:12.846Z,100.00
2022-09-12T04:42:42.263Z,100.00
2022-09-12T04:45:13.503Z,100.00
2022-09-12T04:47:42.542Z,100.00
2022-09-12T04:50:11.715Z,100.00
2022-09-12T04:52:40.681Z,100.00
2022-09-12T04:55:10.786Z,100.00
2022-09-12T04:57:39.936Z,100.00
2022-09-12T05:00:13.218Z,100.00
2022-09-12T05:02:44.388Z,100.00
2022-09-12T05:05:13.366Z,100.00
2022-09-12T05:07:42.373Z,100.00
2022-09-12T05:10:12.634Z,100.00
2022-09-12T05:12:41.608Z,100.00
2022-09-12T05:15:11.563Z,100.00
2022-09-12T05:17:40.477Z,100.00
2022-09-12T05:20:12.740Z,100.00
2022-09-12T05:22:41.704Z,100.00
2022-09-12T05:25:11.372Z,100.00
2022-09-12T05:27:40.383Z,100.00
2022-09-12T05:30:10.934Z,100.00
2022-09-12T05:32:39.890Z,100.00
2022-09-12T05:35:12.181Z,100.00
2022-09-12T05:37:43.547Z,100.00
2022-09-12T05:40:16.068Z,100.00
2022-09-12T05:42:45.163Z,100.00
2022-09-12T05:45:15.102Z,100.00
2022-09-12T05:47:47.274Z,100.00
2022-09-12T05:50:17.846Z,100.00
2022-09-12T05:52:47.261Z,100.00
2022-09-12T05:55:16.578Z,100.00
2022-09-12T05:57:46.858Z,100.00
2022-09-12T06:00:17.370Z,100.00
2022-09-12T06:02:46.516Z,100.00
2022-09-12T06:05:17.013Z,100.00
2022-09-12T06:07:47.497Z,100.00
2022-09-12T06:10:17.837Z,100.00
2022-09-12T06:12:47.576Z,100.00
2022-09-12T06:15:16.681Z,100.00
2022-09-12T06:17:48.356Z,100.00
2022-09-12T06:20:21.621Z,100.00
2022-09-12T06:22:53.914Z,100.00
2022-09-12T06:25:23.004Z,100.00
2022-09-12T06:27:51.912Z,100.00
2022-09-12T06:30:25.335Z,100.00
2022-09-12T06:32:56.761Z,100.00
2022-09-12T06:35:27.218Z,100.00
2022-09-12T06:37:56.292Z,100.00
2022-09-12T06:40:25.421Z,100.00
2022-09-12T06:42:54.566Z,100.00
2022-09-12T06:45:34.551Z,100.00
2022-09-12T06:48:04.696Z,100.00
2022-09-12T06:50:35.126Z,100.00
2022-09-12T06:53:04.365Z,100.00
2022-09-12T06:55:33.907Z,100.00
2022-09-12T06:58:02.900Z,100.00
2022-09-12T07:00:32.225Z,100.00
2022-09-12T07:03:01.465Z,100.00
2022-09-12T07:05:30.446Z,100.00
2022-09-12T07:08:00.740Z,93.99
2022-09-12T07:10:30.874Z,91.26
2022-09-12T07:13:00.023Z,86.82
2022-09-12T07:15:30.136Z,86.89
2022-09-12T07:17:59.399Z,85.32
2022-09-12T07:20:28.447Z,85.13
2022-09-12T07:22:57.784Z,84.57
2022-09-12T07:25:28.522Z,82.63
2022-09-12T07:27:57.641Z,83.89
2022-09-12T07:30:26.663Z,84.10
2022-09-12T07:32:55.903Z,82.71
2022-09-12T07:35:24.929Z,83.58
2022-09-12T07:37:54.089Z,83.41
2022-09-12T07:40:23.269Z,80.04
2022-09-12T07:42:53.861Z,79.81
2022-09-12T07:45:23.170Z,80.46
2022-09-12T07:47:55.441Z,80.70
2022-09-12T07:50:24.512Z,81.67
2022-09-12T07:52:55.748Z,78.36
2022-09-12T07:55:25.030Z,79.22
2022-09-12T07:57:55.671Z,78.68
2022-09-12T08:00:25.093Z,77.68
2022-09-12T08:02:54.702Z,77.97
2022-09-12T08:05:23.748Z,79.35
2022-09-12T08:07:55.881Z,77.15
2022-09-12T08:10:26.682Z,76.76
2022-09-12T08:12:57.075Z,76.50
2022-09-12T08:15:26.482Z,75.00
2022-09-12T08:17:55.487Z,75.17
2022-09-12T08:20:28.292Z,75.24
2022-09-12T08:22:57.733Z,73.52
2022-09-12T08:25:26.683Z,72.82
2022-09-12T08:27:57.081Z,73.27
2022-09-12T08:30:26.276Z,74.07
2022-09-12T08:32:55.217Z,73.41
2022-09-12T08:35:24.109Z,72.15
2022-09-12T08:37:53.155Z,71.02
2022-09-12T08:40:22.368Z,71.80
2022-09-12T08:43:02.822Z,70.34
2022-09-12T08:45:37.763Z,71.25
2022-09-12T08:48:10.636Z,69.66
2022-09-12T08:50:49.239Z,69.68
2022-09-12T08:53:22.501Z,68.15
2022-09-12T08:55:58.395Z,68.32
2022-09-12T08:58:30.493Z,70.49
2022-09-12T09:01:07.302Z,70.54
2022-09-12T09:04:17.251Z,71.36
2022-09-12T09:07:12.657Z,70.58
2022-09-12T09:09:56.911Z,69.28
2022-09-12T09:12:37.497Z,69.66
2022-09-12T09:15:28.718Z,69.48
2022-09-12T09:18:04.153Z,66.19
2022-09-12T09:20:41.183Z,68.09
2022-09-12T09:23:17.530Z,66.89
2022-09-12T09:25:53.698Z,64.37
2022-09-12T09:28:27.107Z,64.47
2022-09-12T09:30:58.378Z,66.30
2022-09-12T09:33:34.098Z,62.87
2022-09-12T09:36:17.141Z,60.90
2022-09-12T09:38:51.772Z,60.95
2022-09-12T09:41:38.567Z,58.26
2022-09-12T09:46:43.081Z,59.84
2022-09-12T09:49:15.439Z,58.90
2022-09-12T09:51:44.861Z,60.55
2022-09-12T09:54:21.989Z,59.20
2022-09-12T09:56:51.462Z,59.63
2022-09-12T09:59:26.554Z,57.17
2022-09-12T10:02:00.999Z,59.36
2022-09-12T10:04:32.644Z,59.12
2022-09-12T10:07:04.186Z,56.69
2022-09-12T10:09:34.744Z,58.21
2022-09-12T10:12:22.925Z,57.60
2022-09-12T10:15:00.551Z,55.10
2022-09-12T10:17:34.695Z,54.49
2022-09-12T10:20:20.473Z,57.12
2022-09-12T10:22:50.553Z,57.08
2022-09-12T10:25:21.440Z,57.25
2022-09-12T10:27:56.721Z,55.87
2022-09-12T10:30:28.379Z,56.71
2022-09-12T10:33:07.120Z,56.54
2022-09-12T10:35:46.565Z,57.54
2022-09-12T10:38:21.890Z,54.97
2022-09-12T10:40:59.221Z,54.77
2022-09-12T10:43:32.013Z,54.40
2022-09-12T10:46:18.245Z,56.91
2022-09-12T10:48:49.884Z,55.41
2022-09-12T10:51:29.537Z,53.56
2022-09-12T10:54:00.604Z,55.47
2022-09-12T10:56:32.590Z,53.79
2022-09-12T10:59:20.272Z,56.75
2022-09-12T11:01:56.284Z,58.06
2022-09-12T11:04:32.420Z,55.99
2022-09-12T11:07:25.090Z,57.32
2022-09-12T11:10:02.443Z,57.15
2022-09-12T11:12:39.646Z,56.67
2022-09-12T11:15:43.761Z,57.02
2022-09-12T11:18:26.105Z,56.79
2022-09-12T11:21:15.028Z,58.32
2022-09-12T11:24:09.455Z,56.39
2022-09-12T11:26:51.885Z,56.92
2022-09-12T11:29:33.664Z,57.05
2022-09-12T11:32:23.401Z,58.84
2022-09-12T11:35:00.859Z,57.76
2022-09-12T11:37:44.686Z,58.74
2022-09-12T11:40:28.488Z,58.61
2022-09-12T11:43:03.568Z,57.05
2022-09-12T11:45:40.474Z,55.45
2022-09-12T11:48:17.952Z,58.04
2022-09-12T11:50:46.932Z,56.61
2022-09-12T11:53:30.317Z,58.01
2022-09-12T11:56:06.674Z,57.67
2022-09-12T11:58:36.757Z,55.60
2022-09-12T12:01:14.980Z,55.69
2022-09-12T12:03:47.393Z,57.59
2022-09-12T12:06:20.246Z,57.61
2022-09-12T12:08:51.434Z,58.92
2022-09-12T12:11:32.130Z,58.44
2022-09-12T12:14:04.562Z,57.30
2022-09-12T12:16:35.782Z,56.72
2022-09-12T12:19:22.827Z,56.60
2022-09-12T12:21:52.451Z,56.11
2022-09-12T12:24:24.932Z,57.03
2022-09-12T12:27:02.340Z,55.91
2022-09-12T12:29:45.604Z,56.74
2022-09-12T12:32:23.010Z,54.80
2022-09-12T12:35:02.397Z,54.49
2022-09-12T12:37:54.130Z,55.80
2022-09-12T12:40:28.804Z,54.94
2022-09-12T12:43:39.878Z,57.34
2022-09-12T12:46:15.716Z,57.53
2022-09-12T12:48:58.195Z,59.82
2022-09-12T12:51:50.301Z,58.55
2022-09-12T12:54:48.370Z,55.61
2022-09-12T12:57:31.857Z,57.17
2022-09-12T13:00:05.263Z,57.26
2022-09-12T13:02:39.571Z,56.26
2022-09-12T13:05:20.072Z,56.44
2022-09-12T13:07:56.693Z,56.41
2022-09-12T13:10:29.335Z,58.56
2022-09-12T13:13:05.192Z,56.39
2022-09-12T13:15:52.498Z,57.34
2022-09-12T13:18:27.829Z,54.96
2022-09-12T13:21:07.052Z,55.46
2022-09-12T13:23:36.553Z,54.61
2022-09-12T13:26:12.330Z,56.12
2022-09-12T13:28:42.890Z,55.05
2022-09-12T13:31:25.116Z,56.00
2022-09-12T13:33:57.419Z,55.16
2022-09-12T13:36:55.190Z,55.78
2022-09-12T13:39:29.411Z,57.20
2022-09-12T13:42:28.922Z,57.31
2022-09-12T13:45:03.229Z,58.04
2022-09-12T13:47:36.760Z,59.45
2022-09-12T13:50:09.921Z,58.38
2022-09-12T13:52:40.197Z,58.27
2022-09-12T13:55:19.598Z,57.47
2022-09-12T13:57:58.199Z,57.50
2022-09-12T14:00:30.445Z,57.03
2022-09-12T14:03:32.288Z,58.46
2022-09-12T14:06:07.000Z,56.73
2022-09-12T14:08:40.314Z,56.00
2022-09-12T14:11:11.321Z,55.69
2022-09-12T14:13:41.611Z,57.81
2022-09-12T14:16:13.332Z,55.52
2022-09-12T14:18:45.810Z,54.90
2022-09-12T14:21:31.965Z,55.63
2022-09-12T14:24:05.082Z,55.12
2022-09-12T14:26:37.633Z,54.30
2022-09-12T14:29:09.103Z,53.72
2022-09-12T14:31:41.668Z,53.20
2022-09-12T14:34:15.035Z,52.38
2022-09-12T14:36:48.055Z,51.60
2022-09-12T14:39:24.159Z,50.27
2022-09-12T14:42:03.765Z,50.23
2022-09-12T14:44:35.638Z,52.10
2022-09-12T14:47:16.845Z,48.48
2022-09-12T14:49:47.310Z,49.90
2022-09-12T14:52:29.496Z,49.27
2022-09-12T14:55:00.671Z,49.43
2022-09-12T14:57:40.063Z,49.59
2022-09-12T15:00:26.019Z,50.83
2022-09-12T15:02:56.638Z,50.38
2022-09-12T15:05:28.084Z,50.97
2022-09-12T15:08:00.880Z,53.35
2022-09-12T15:10:33.471Z,53.15
2022-09-12T15:13:21.414Z,52.65
2022-09-12T15:15:53.840Z,53.26
2022-09-12T15:18:26.987Z,54.42
2022-09-12T15:21:03.254Z,54.65
2022-09-12T15:23:38.479Z,55.54
2022-09-12T15:26:09.137Z,57.25
2022-09-12T15:28:38.735Z,55.14
2022-09-12T15:31:13.618Z,54.02
2022-09-12T15:33:44.997Z,55.62
2022-09-12T15:36:18.005Z,54.32
2022-09-12T15:38:49.415Z,53.17
2022-09-12T15:41:22.635Z,53.28
2022-09-12T15:43:53.410Z,52.15
2022-09-12T15:46:23.368Z,52.29
2022-09-12T15:48:55.729Z,51.82
2022-09-12T15:51:26.266Z,52.12
2022-09-12T15:53:56.722Z,52.71
2022-09-12T15:56:27.582Z,55.60
2022-09-12T15:58:59.856Z,56.69
2022-09-12T16:01:31.052Z,53.45
2022-09-12T16:04:05.681Z,56.48
2022-09-12T16:06:37.441Z,57.29
2022-09-12T16:09:07.930Z,57.19
2022-09-12T16:11:37.910Z,58.03
2022-09-12T16:14:08.105Z,57.34
2022-09-12T16:16:38.677Z,58.26
2022-09-12T16:19:10.745Z,58.20
2022-09-12T16:21:41.233Z,57.07
2022-09-12T16:24:11.130Z,57.96
2022-09-12T16:26:43.821Z,58.78
2022-09-12T16:29:17.011Z,57.81
2022-09-12T16:31:47.283Z,58.47
2022-09-12T16:34:19.337Z,58.11
2022-09-12T16:36:49.769Z,59.20
2022-09-12T16:39:21.380Z,60.21
2022-09-12T16:41:51.333Z,60.42
2022-09-12T16:44:21.449Z,59.61
2022-09-12T16:46:51.484Z,59.89
2022-09-12T16:49:23.519Z,60.76
2022-09-12T16:51:56.350Z,59.98
2022-09-12T16:54:26.304Z,61.06
2022-09-12T16:56:56.860Z,62.05
2022-09-12T16:59:27.045Z,61.48
2022-09-12T17:01:57.414Z,61.70
2022-09-12T17:04:29.682Z,61.85
2022-09-12T17:07:00.973Z,62.58
2022-09-12T17:09:35.784Z,63.03
2022-09-12T17:12:06.845Z,62.40
2022-09-12T17:14:37.081Z,63.96
2022-09-12T17:17:07.485Z,62.83
2022-09-12T17:19:39.337Z,63.84
2022-09-12T17:22:09.438Z,63.66
2022-09-12T17:24:41.185Z,64.99
2022-09-12T17:27:12.211Z,64.26
2022-09-12T17:29:42.975Z,64.70
2022-09-12T17:32:16.931Z,64.35
2022-09-12T17:34:49.189Z,64.63
2022-09-12T17:37:19.339Z,65.32
2022-09-12T17:39:50.459Z,65.08
2022-09-12T17:42:24.629Z,66.01
2022-09-12T17:44:58.675Z,65.31
2022-09-12T17:47:28.804Z,65.85
2022-09-12T17:50:20.719Z,66.05
2022-09-12T17:52:50.467Z,67.38
2022-09-12T17:55:21.288Z,67.93
2022-09-12T17:57:51.976Z,67.63
2022-09-12T18:00:43.007Z,67.46
2022-09-12T18:03:14.695Z,68.94
2022-09-12T18:05:50.877Z,68.01
2022-09-12T18:08:21.661Z,67.50
2022-09-12T18:10:53.417Z,69.13
2022-09-12T18:13:23.824Z,69.02
2022-09-12T18:15:53.941Z,70.62
2022-09-12T18:18:24.459Z,70.58
2022-09-12T18:20:56.786Z,72.00
2022-09-12T18:23:27.814Z,71.05
2022-09-12T18:26:04.439Z,70.06
2022-09-12T18:28:36.639Z,70.58
2022-09-12T18:31:10.315Z,71.12
2022-09-12T18:33:39.471Z,71.07
2022-09-12T18:36:14.763Z,70.18
2022-09-12T18:38:43.958Z,69.79
2022-09-12T18:41:14.739Z,69.98
2022-09-12T18:43:44.294Z,70.26
2022-09-12T18:46:14.688Z,70.26
2022-09-12T18:48:44.881Z,70.85
2022-09-12T18:51:17.803Z,71.34
2022-09-12T18:53:52.156Z,71.22
2022-09-12T18:56:22.937Z,70.80
2022-09-12T18:58:53.772Z,71.46
2022-09-12T19:01:24.598Z,70.88
2022-09-12T19:03:54.827Z,70.05
2022-09-12T19:06:27.034Z,70.55
2022-09-12T19:08:57.716Z,71.03
2022-09-12T19:11:28.749Z,71.93
2022-09-12T19:13:58.210Z,71.24
2022-09-12T19:16:28.726Z,71.98
2022-09-12T19:18:58.738Z,71.27
2022-09-12T19:21:31.033Z,71.55
2022-09-12T19:24:03.494Z,71.56
2022-09-12T19:26:33.641Z,70.93
2022-09-12T19:29:03.478Z,70.57
2022-09-12T19:31:33.930Z,71.66
2022-09-12T19:34:04.493Z,71.37
2022-09-12T19:36:51.437Z,71.79
2022-09-12T19:39:20.629Z,71.13
2022-09-12T19:41:49.808Z,71.83
2022-09-12T19:44:19.955Z,71.52
2022-09-12T19:46:49.105Z,71.99
2022-09-12T19:49:18.385Z,72.71
2022-09-12T19:51:48.667Z,72.22
2022-09-12T19:54:17.687Z,73.59
2022-09-12T19:56:46.816Z,73.75
2022-09-12T19:59:16.063Z,73.80
2022-09-12T20:01:45.189Z,74.17
2022-09-12T20:04:14.326Z,73.33
2022-09-12T20:06:43.309Z,73.94
2022-09-12T20:09:13.661Z,74.01
2022-09-12T20:11:42.646Z,74.35
2022-09-12T20:14:11.642Z,73.29
2022-09-12T20:16:40.607Z,73.91
2022-09-12T20:19:10.572Z,75.13
2022-09-12T20:21:39.540Z,74.82
2022-09-12T20:24:11.093Z,75.54
2022-09-12T20:26:42.168Z,75.22
2022-09-12T20:29:11.979Z,75.43
2022-09-12T20:31:43.259Z,75.85
2022-09-12T20:34:17.698Z,76.52
2022-09-12T20:36:46.926Z,76.39
2022-09-12T20:39:18.313Z,76.74
2022-09-12T20:41:49.405Z,76.38
2022-09-12T20:44:18.546Z,77.35
2022-09-12T20:46:47.925Z,77.43
2022-09-12T20:49:16.926Z,77.45
2022-09-12T20:51:46.099Z,76.70
2022-09-12T20:54:15.200Z,76.71
2022-09-12T20:56:48.721Z,77.68
2022-09-12T20:59:17.739Z,78.35
2022-09-12T21:01:46.765Z,77.39
2022-09-12T21:04:16.342Z,78.42
2022-09-12T21:06:45.518Z,78.50
2022-09-12T21:09:14.794Z,78.79
2022-09-12T21:11:43.779Z,78.56
2022-09-12T21:14:14.478Z,78.65
2022-09-12T21:16:43.461Z,77.88
2022-09-12T21:19:12.673Z,78.19
2022-09-12T21:21:41.643Z,78.08
2022-09-12T21:24:15.244Z,77.96
2022-09-12T21:26:44.703Z,77.12
2022-09-12T21:29:15.106Z,78.76
2022-09-12T21:31:45.082Z,77.38
2022-09-12T21:34:14.362Z,77.75
2022-09-12T21:36:43.471Z,77.70
2022-09-12T21:39:12.515Z,76.72
2022-09-12T21:41:41.436Z,77.18
2022-09-12T21:44:10.437Z,76.81
2022-09-12T21:46:40.858Z,77.16
2022-09-12T21:49:12.837Z,76.15
2022-09-12T21:51:42.117Z,76.07
2022-09-12T21:54:11.311Z,76.68
2022-09-12T21:56:40.458Z,76.05
2022-09-12T21:59:09.396Z,75.97
2022-09-12T22:01:40.130Z,75.48
2022-09-12T22:04:10.932Z,76.03
2022-09-12T22:06:39.985Z,75.81
2022-09-12T22:09:09.050Z,75.23
2022-09-12T22:11:38.344Z,76.44
2022-09-12T22:14:07.275Z,76.00
2022-09-12T22:16:36.414Z,76.11
2022-09-12T22:19:06.692Z,75.04
2022-09-12T22:21:55.724Z,74.26
2022-09-12T22:24:30.385Z,74.65
2022-09-12T22:27:03.674Z,74.66
2022-09-12T22:29:33.189Z,74.58
2022-09-12T22:32:02.588Z,75.42
2022-09-12T22:34:33.155Z,74.02
2022-09-12T22:37:02.376Z,74.40
2022-09-12T22:39:31.590Z,74.41
2022-09-12T22:42:01.561Z,74.48
2022-09-12T22:44:30.593Z,73.88
2022-09-12T22:46:59.709Z,74.53
2022-09-12T22:49:28.682Z,73.85
2022-09-12T22:51:59.310Z,74.24
2022-09-12T22:54:28.401Z,73.27
2022-09-12T22:56:57.482Z,74.20
2022-09-12T22:59:26.586Z,74.56
2022-09-12T23:01:55.528Z,74.78
2022-09-12T23:04:24.515Z,74.50
2022-09-12T23:06:53.466Z,73.57
2022-09-12T23:09:23.823Z,74.26
2022-09-12T23:11:52.956Z,72.87
2022-09-12T23:14:22.401Z,73.81
2022-09-12T23:16:51.393Z,73.55
2022-09-12T23:19:20.483Z,73.51
2022-09-12T23:21:49.426Z,74.09
2022-09-12T23:24:18.432Z,75.17
2022-09-12T23:26:48.711Z,75.08
2022-09-12T23:29:17.637Z,76.33
2022-09-12T23:31:47.378Z,76.64
2022-09-12T23:34:16.646Z,77.15
2022-09-12T23:36:46.174Z,77.18
2022-09-12T23:39:15.228Z,77.26
2022-09-12T23:41:44.394Z,77.59
2022-09-12T23:44:14.654Z,78.14
2022-09-12T23:46:43.645Z,78.41
2022-09-12T23:49:12.651Z,78.26
2022-09-12T23:51:41.628Z,78.79
2022-09-12T23:54:10.594Z,77.90
2022-09-12T23:56:39.671Z,77.73
2022-09-12T23:59:08.770Z,77.81
